DAL3710 KJAC-KMSP
Flight info
| Callsign | DAL3710 |
|---|---|
| Flight time | 1h 50m |
| Altitude | 35000 |
| Route | KICNE CZI RAP KUBKE UFFDA TORGY4 |
| Aircraft | A321/M-SDE3FGHIRWY/LB1 |
Departure
| Time | 2026-05-07 12:38 |
|---|---|
| Airport | Jackson Hole Airport (KJAC) |
Arrival
| Time | 2026-05-07 14:28 |
|---|---|
| Airport | Minneapolis–Saint Paul International Airport / Wold–Chamberlain Field (KMSP) |
| Time | Latitude | Longitude | Altitude | Speed | Heading |
|---|---|---|---|---|---|
| 2026-05-07 12:26 | 43.59957 | -110.73869 | 6423 ft | 0 kts | 110° |
| 2026-05-07 12:33 | 43.59962 | -110.73895 | 6418 ft | 4 kts | 57° |
| 2026-05-07 12:33 | 43.59943 | -110.73909 | 6417 ft | 4 kts | 15° |
| 2026-05-07 12:33 | 43.59930 | -110.73915 | 6419 ft | 1 kts | 19° |
| 2026-05-07 12:35 | 43.59941 | -110.73909 | 6417 ft | 6 kts | 19° |
| 2026-05-07 12:35 | 43.59985 | -110.73911 | 6420 ft | 9 kts | 319° |
| 2026-05-07 12:36 | 43.59958 | -110.73996 | 6419 ft | 12 kts | 207° |
| 2026-05-07 12:36 | 43.59907 | -110.74081 | 6419 ft | 17 kts | 281° |
| 2026-05-07 12:36 | 43.59936 | -110.74167 | 6417 ft | 0 kts | 11° |
| 2026-05-07 12:37 | 43.59943 | -110.74164 | 6420 ft | 13 kts | 14° |
| 2026-05-07 12:37 | 43.60289 | -110.73996 | 6423 ft | 89 kts | 20° |
| 2026-05-07 12:37 | 43.61063 | -110.73618 | 6450 ft | 144 kts | 19° |
| 2026-05-07 12:37 | 43.62101 | -110.73110 | 6875 ft | 160 kts | 19° |
| 2026-05-07 12:38 | 43.63142 | -110.72587 | 7621 ft | 159 kts | 17° |
| 2026-05-07 12:38 | 43.64179 | -110.72083 | 8221 ft | 158 kts | 17° |
| 2026-05-07 12:38 | 43.65228 | -110.71575 | 8452 ft | 166 kts | 18° |
| 2026-05-07 12:38 | 43.66350 | -110.71029 | 8590 ft | 176 kts | 18° |
| 2026-05-07 12:39 | 43.67514 | -110.70370 | 8710 ft | 187 kts | 33° |
| 2026-05-07 12:39 | 43.68431 | -110.69064 | 8859 ft | 193 kts | 48° |
| 2026-05-07 12:39 | 43.69335 | -110.67659 | 8994 ft | 198 kts | 46° |
| 2026-05-07 12:39 | 43.70282 | -110.66236 | 9131 ft | 204 kts | 46° |
| 2026-05-07 12:40 | 43.71287 | -110.64877 | 9257 ft | 206 kts | 32° |
| 2026-05-07 12:40 | 43.72545 | -110.63928 | 9396 ft | 207 kts | 23° |
| 2026-05-07 12:40 | 43.73832 | -110.63014 | 9527 ft | 209 kts | 24° |
| 2026-05-07 12:40 | 43.75124 | -110.62078 | 9621 ft | 210 kts | 22° |
| 2026-05-07 12:41 | 43.76451 | -110.61116 | 9732 ft | 219 kts | 22° |
| 2026-05-07 12:41 | 43.77839 | -110.60112 | 9878 ft | 231 kts | 23° |
| 2026-05-07 12:41 | 43.79294 | -110.59060 | 9998 ft | 242 kts | 22° |
| 2026-05-07 12:41 | 43.80832 | -110.57944 | 10116 ft | 258 kts | 24° |
| 2026-05-07 12:42 | 43.82493 | -110.56742 | 10226 ft | 281 kts | 24° |
| 2026-05-07 12:42 | 43.84283 | -110.55395 | 10357 ft | 305 kts | 31° |
| 2026-05-07 12:42 | 43.85773 | -110.53146 | 10501 ft | 334 kts | 60° |
| 2026-05-07 12:42 | 43.86375 | -110.49945 | 10631 ft | 358 kts | 88° |
| 2026-05-07 12:43 | 43.86022 | -110.46438 | 10810 ft | 378 kts | 105° |
| 2026-05-07 12:43 | 43.85310 | -110.42897 | 11264 ft | 385 kts | 98° |
| 2026-05-07 12:43 | 43.85305 | -110.39198 | 11780 ft | 387 kts | 82° |
| 2026-05-07 12:43 | 43.85571 | -110.35469 | 12382 ft | 390 kts | 82° |
| 2026-05-07 12:44 | 43.85824 | -110.31704 | 12958 ft | 395 kts | 82° |
| 2026-05-07 12:44 | 43.86056 | -110.27893 | 13562 ft | 399 kts | 82° |
| 2026-05-07 12:44 | 43.86270 | -110.24043 | 14149 ft | 403 kts | 82° |
| 2026-05-07 12:44 | 43.86476 | -110.20138 | 14629 ft | 408 kts | 82° |
| 2026-05-07 12:45 | 43.86677 | -110.16193 | 15132 ft | 413 kts | 82° |
| 2026-05-07 12:45 | 43.86877 | -110.12212 | 15608 ft | 416 kts | 82° |
| 2026-05-07 12:45 | 43.87078 | -110.08193 | 16099 ft | 419 kts | 82° |
| 2026-05-07 12:45 | 43.87277 | -110.04145 | 16594 ft | 423 kts | 82° |
| 2026-05-07 12:46 | 43.87479 | -110.00063 | 17123 ft | 426 kts | 82° |
| 2026-05-07 12:46 | 43.87683 | -109.96009 | 17621 ft | 429 kts | 82° |
| 2026-05-07 12:46 | 43.87895 | -109.91870 | 18062 ft | 432 kts | 82° |
| 2026-05-07 12:46 | 43.88107 | -109.87700 | 18504 ft | 436 kts | 82° |
| 2026-05-07 12:47 | 43.88319 | -109.83494 | 18936 ft | 438 kts | 82° |
| 2026-05-07 12:47 | 43.88526 | -109.79279 | 19412 ft | 439 kts | 82° |
| 2026-05-07 12:47 | 43.88731 | -109.75045 | 19809 ft | 442 kts | 82° |
| 2026-05-07 12:47 | 43.88937 | -109.70783 | 20229 ft | 444 kts | 82° |
| 2026-05-07 12:48 | 43.89144 | -109.66499 | 20627 ft | 446 kts | 82° |
| 2026-05-07 12:48 | 43.89349 | -109.62190 | 21001 ft | 449 kts | 82° |
| 2026-05-07 12:48 | 43.89553 | -109.57859 | 21419 ft | 451 kts | 82° |
| 2026-05-07 12:48 | 43.89754 | -109.53504 | 21833 ft | 454 kts | 82° |
| 2026-05-07 12:49 | 43.89954 | -109.49123 | 22234 ft | 457 kts | 82° |
| 2026-05-07 12:49 | 43.90154 | -109.44726 | 22718 ft | 457 kts | 82° |
| 2026-05-07 12:49 | 43.90356 | -109.40321 | 23143 ft | 459 kts | 82° |
| 2026-05-07 12:49 | 43.90560 | -109.35882 | 23477 ft | 464 kts | 82° |
| 2026-05-07 12:50 | 43.90767 | -109.31399 | 23763 ft | 467 kts | 82° |
| 2026-05-07 12:50 | 43.90971 | -109.26889 | 24053 ft | 470 kts | 82° |
| 2026-05-07 12:50 | 43.91177 | -109.22349 | 24380 ft | 473 kts | 82° |
| 2026-05-07 12:50 | 43.91381 | -109.17780 | 24690 ft | 476 kts | 82° |
| 2026-05-07 12:51 | 43.91584 | -109.13185 | 25025 ft | 479 kts | 82° |
| 2026-05-07 12:51 | 43.91786 | -109.08564 | 25342 ft | 482 kts | 82° |
| 2026-05-07 12:51 | 43.91985 | -109.03913 | 25634 ft | 485 kts | 82° |
| 2026-05-07 12:51 | 43.92180 | -108.99234 | 25908 ft | 487 kts | 82° |
| 2026-05-07 12:52 | 43.92366 | -108.94527 | 26200 ft | 490 kts | 83° |
| 2026-05-07 12:52 | 43.92549 | -108.89796 | 26486 ft | 492 kts | 82° |
| 2026-05-07 12:52 | 43.92734 | -108.85041 | 26730 ft | 495 kts | 82° |
| 2026-05-07 12:52 | 43.92921 | -108.80266 | 27009 ft | 497 kts | 82° |
| 2026-05-07 12:53 | 43.93114 | -108.75468 | 27293 ft | 499 kts | 82° |
| 2026-05-07 12:53 | 43.93309 | -108.70639 | 27637 ft | 501 kts | 82° |
| 2026-05-07 12:53 | 43.93499 | -108.65812 | 27998 ft | 502 kts | 82° |
| 2026-05-07 12:53 | 43.93687 | -108.60969 | 28269 ft | 504 kts | 82° |
| 2026-05-07 12:54 | 43.93867 | -108.56176 | 28610 ft | 504 kts | 82° |
| 2026-05-07 12:54 | 43.94049 | -108.51265 | 28994 ft | 503 kts | 82° |
| 2026-05-07 12:54 | 43.94224 | -108.46483 | 29357 ft | 503 kts | 82° |
| 2026-05-07 12:54 | 43.94401 | -108.41643 | 29727 ft | 502 kts | 82° |
| 2026-05-07 12:55 | 43.94578 | -108.36791 | 30070 ft | 502 kts | 82° |
| 2026-05-07 12:55 | 43.94754 | -108.31964 | 30365 ft | 501 kts | 82° |
| 2026-05-07 12:55 | 43.94930 | -108.27130 | 30669 ft | 501 kts | 82° |
| 2026-05-07 12:55 | 43.95106 | -108.22306 | 30992 ft | 500 kts | 82° |
| 2026-05-07 12:56 | 43.95279 | -108.17488 | 31321 ft | 500 kts | 82° |
| 2026-05-07 12:56 | 43.95448 | -108.12663 | 31654 ft | 499 kts | 82° |
| 2026-05-07 12:56 | 43.95611 | -108.07858 | 31982 ft | 498 kts | 82° |
| 2026-05-07 12:56 | 43.95768 | -108.03056 | 32300 ft | 498 kts | 82° |
| 2026-05-07 12:57 | 43.95918 | -107.98262 | 32625 ft | 497 kts | 82° |
| 2026-05-07 12:57 | 43.96074 | -107.93473 | 33010 ft | 496 kts | 82° |
| 2026-05-07 12:57 | 43.96237 | -107.88699 | 33305 ft | 496 kts | 82° |
| 2026-05-07 12:57 | 43.96396 | -107.83910 | 33552 ft | 497 kts | 82° |
| 2026-05-07 12:58 | 43.96551 | -107.79110 | 33772 ft | 498 kts | 82° |
| 2026-05-07 12:58 | 43.96699 | -107.74314 | 34052 ft | 497 kts | 82° |
| 2026-05-07 12:58 | 43.96843 | -107.69513 | 34315 ft | 497 kts | 82° |
| 2026-05-07 12:58 | 43.96983 | -107.64724 | 34569 ft | 497 kts | 82° |
| 2026-05-07 12:59 | 43.97123 | -107.59932 | 34817 ft | 496 kts | 82° |
| 2026-05-07 12:59 | 43.97261 | -107.55153 | 34952 ft | 494 kts | 83° |
| 2026-05-07 12:59 | 43.97531 | -107.45728 | 34968 ft | 490 kts | 83° |
| 2026-05-07 13:00 | 43.97798 | -107.36279 | 34959 ft | 490 kts | 83° |
| 2026-05-07 13:00 | 43.98055 | -107.26824 | 34952 ft | 490 kts | 83° |
| 2026-05-07 13:01 | 43.98297 | -107.17384 | 34931 ft | 487 kts | 84° |
| 2026-05-07 13:01 | 43.98532 | -107.08004 | 34924 ft | 486 kts | 84° |
| 2026-05-07 13:02 | 43.98771 | -106.98628 | 34910 ft | 486 kts | 84° |
| 2026-05-07 13:02 | 43.98996 | -106.89251 | 34888 ft | 486 kts | 84° |
| 2026-05-07 13:03 | 43.99210 | -106.79862 | 34915 ft | 486 kts | 84° |
| 2026-05-07 13:03 | 43.99420 | -106.70481 | 34884 ft | 486 kts | 84° |
| 2026-05-07 13:04 | 43.99619 | -106.61108 | 34882 ft | 486 kts | 84° |
| 2026-05-07 13:04 | 43.99811 | -106.51721 | 34866 ft | 485 kts | 84° |
| 2026-05-07 13:05 | 43.99996 | -106.42352 | 34887 ft | 485 kts | 85° |
| 2026-05-07 13:05 | 44.00104 | -106.32973 | 34854 ft | 486 kts | 85° |
| 2026-05-07 13:06 | 44.00135 | -106.23569 | 34849 ft | 487 kts | 86° |
| 2026-05-07 13:06 | 44.00165 | -106.14150 | 34846 ft | 488 kts | 85° |
| 2026-05-07 13:07 | 44.00213 | -106.04789 | 34858 ft | 488 kts | 85° |
| 2026-05-07 13:07 | 44.00256 | -105.95350 | 34839 ft | 489 kts | 86° |
| 2026-05-07 13:08 | 44.00293 | -105.85903 | 34838 ft | 489 kts | 86° |
| 2026-05-07 13:08 | 44.00321 | -105.76446 | 34836 ft | 490 kts | 86° |
| 2026-05-07 13:09 | 44.00337 | -105.66988 | 34870 ft | 490 kts | 86° |
| 2026-05-07 13:09 | 44.00336 | -105.57526 | 34858 ft | 490 kts | 86° |
| 2026-05-07 13:10 | 44.00334 | -105.48070 | 34858 ft | 490 kts | 86° |
| 2026-05-07 13:10 | 44.00331 | -105.40198 | 34855 ft | 490 kts | 86° |
| 2026-05-07 13:11 | 44.00324 | -105.30740 | 34864 ft | 490 kts | 86° |
| 2026-05-07 13:11 | 44.00308 | -105.21284 | 34886 ft | 489 kts | 86° |
| 2026-05-07 13:12 | 44.00279 | -105.11835 | 34879 ft | 489 kts | 86° |
| 2026-05-07 13:12 | 44.00236 | -105.02389 | 34894 ft | 489 kts | 86° |
| 2026-05-07 13:13 | 44.00188 | -104.92934 | 34883 ft | 490 kts | 86° |
| 2026-05-07 13:13 | 44.00137 | -104.83481 | 34909 ft | 489 kts | 86° |
| 2026-05-07 13:14 | 44.00075 | -104.74035 | 34916 ft | 489 kts | 86° |
| 2026-05-07 13:14 | 44.00009 | -104.64588 | 34929 ft | 489 kts | 86° |
| 2026-05-07 13:15 | 43.99935 | -104.55138 | 34945 ft | 489 kts | 86° |
| 2026-05-07 13:15 | 43.99850 | -104.45688 | 34953 ft | 489 kts | 86° |
| 2026-05-07 13:16 | 43.99755 | -104.36239 | 34961 ft | 489 kts | 86° |
| 2026-05-07 13:16 | 43.99659 | -104.26794 | 34960 ft | 489 kts | 87° |
| 2026-05-07 13:17 | 43.99555 | -104.17339 | 34969 ft | 489 kts | 87° |
| 2026-05-07 13:17 | 43.99441 | -104.07892 | 34946 ft | 488 kts | 87° |
| 2026-05-07 13:18 | 43.99318 | -103.98480 | 34862 ft | 487 kts | 87° |
| 2026-05-07 13:18 | 43.99181 | -103.89117 | 34871 ft | 487 kts | 87° |
| 2026-05-07 13:19 | 43.99041 | -103.79714 | 34905 ft | 487 kts | 88° |
| 2026-05-07 13:19 | 43.98903 | -103.70328 | 34911 ft | 486 kts | 88° |
| 2026-05-07 13:20 | 43.98757 | -103.60948 | 34908 ft | 486 kts | 88° |
| 2026-05-07 13:20 | 43.98596 | -103.51578 | 34912 ft | 485 kts | 88° |
| 2026-05-07 13:21 | 43.98432 | -103.42209 | 34922 ft | 485 kts | 88° |
| 2026-05-07 13:21 | 43.98267 | -103.32870 | 34911 ft | 484 kts | 88° |
| 2026-05-07 13:22 | 43.98095 | -103.23540 | 34895 ft | 483 kts | 88° |
| 2026-05-07 13:22 | 43.97906 | -103.14226 | 34922 ft | 482 kts | 88° |
| 2026-05-07 13:23 | 43.97712 | -103.04925 | 34964 ft | 481 kts | 87° |
| 2026-05-07 13:23 | 43.98488 | -102.95878 | 34956 ft | 473 kts | 73° |
| 2026-05-07 13:24 | 43.99924 | -102.86964 | 34951 ft | 473 kts | 73° |
| 2026-05-07 13:24 | 44.01364 | -102.77991 | 34941 ft | 473 kts | 73° |
| 2026-05-07 13:25 | 44.02787 | -102.69135 | 34945 ft | 473 kts | 73° |
| 2026-05-07 13:25 | 44.04217 | -102.60213 | 34935 ft | 473 kts | 73° |
| 2026-05-07 13:26 | 44.05640 | -102.51289 | 34930 ft | 473 kts | 73° |
| 2026-05-07 13:26 | 44.07045 | -102.42348 | 34924 ft | 473 kts | 73° |
| 2026-05-07 13:27 | 44.08449 | -102.33393 | 34922 ft | 474 kts | 73° |
| 2026-05-07 13:27 | 44.09851 | -102.24422 | 34917 ft | 475 kts | 73° |
| 2026-05-07 13:28 | 44.11243 | -102.15442 | 34915 ft | 475 kts | 73° |
| 2026-05-07 13:28 | 44.12626 | -102.06447 | 34919 ft | 475 kts | 74° |
| 2026-05-07 13:29 | 44.13996 | -101.97499 | 34938 ft | 476 kts | 73° |
| 2026-05-07 13:29 | 44.15382 | -101.88483 | 34939 ft | 476 kts | 73° |
| 2026-05-07 13:30 | 44.16759 | -101.79450 | 34941 ft | 477 kts | 73° |
| 2026-05-07 13:30 | 44.18130 | -101.70418 | 34946 ft | 477 kts | 73° |
| 2026-05-07 13:31 | 44.19493 | -101.61370 | 34950 ft | 477 kts | 73° |
| 2026-05-07 13:31 | 44.20838 | -101.52303 | 34934 ft | 478 kts | 73° |
| 2026-05-07 13:32 | 44.22104 | -101.43193 | 34924 ft | 481 kts | 79° |
| 2026-05-07 13:32 | 44.22799 | -101.33897 | 34926 ft | 483 kts | 79° |
| 2026-05-07 13:33 | 44.23487 | -101.24577 | 34917 ft | 484 kts | 79° |
| 2026-05-07 13:33 | 44.24174 | -101.15235 | 34905 ft | 485 kts | 79° |
| 2026-05-07 13:34 | 44.25188 | -101.01183 | 34909 ft | 486 kts | 79° |
| 2026-05-07 13:35 | 44.25856 | -100.91798 | 34909 ft | 486 kts | 79° |
| 2026-05-07 13:35 | 44.26511 | -100.82408 | 34914 ft | 486 kts | 79° |
| 2026-05-07 13:36 | 44.27165 | -100.73020 | 34913 ft | 486 kts | 79° |
| 2026-05-07 13:36 | 44.27810 | -100.63625 | 34917 ft | 486 kts | 79° |
| 2026-05-07 13:37 | 44.28443 | -100.54221 | 34941 ft | 487 kts | 79° |
| 2026-05-07 13:37 | 44.29069 | -100.44798 | 34918 ft | 488 kts | 79° |
| 2026-05-07 13:38 | 44.29689 | -100.35369 | 34915 ft | 488 kts | 79° |
| 2026-05-07 13:38 | 44.30305 | -100.25915 | 34933 ft | 489 kts | 79° |
| 2026-05-07 13:39 | 44.30912 | -100.16452 | 34961 ft | 490 kts | 79° |
| 2026-05-07 13:39 | 44.31514 | -100.06981 | 34946 ft | 490 kts | 79° |
| 2026-05-07 13:40 | 44.32111 | -99.97548 | 34934 ft | 491 kts | 79° |
| 2026-05-07 13:40 | 44.32697 | -99.88047 | 34930 ft | 491 kts | 79° |
| 2026-05-07 13:41 | 44.33271 | -99.78530 | 34946 ft | 492 kts | 79° |
| 2026-05-07 13:41 | 44.33842 | -99.68997 | 34951 ft | 492 kts | 79° |
| 2026-05-07 13:42 | 44.34411 | -99.59464 | 34937 ft | 493 kts | 79° |
| 2026-05-07 13:42 | 44.34973 | -99.49915 | 34950 ft | 493 kts | 79° |
| 2026-05-07 13:43 | 44.35523 | -99.40367 | 34963 ft | 493 kts | 79° |
| 2026-05-07 13:43 | 44.36060 | -99.30815 | 34955 ft | 493 kts | 79° |
| 2026-05-07 13:44 | 44.36594 | -99.21252 | 34949 ft | 494 kts | 79° |
| 2026-05-07 13:44 | 44.37134 | -99.11693 | 34945 ft | 494 kts | 79° |
| 2026-05-07 13:45 | 44.37668 | -99.02123 | 34975 ft | 494 kts | 79° |
| 2026-05-07 13:45 | 44.38178 | -98.92543 | 34969 ft | 494 kts | 79° |
| 2026-05-07 13:46 | 44.38677 | -98.82960 | 34960 ft | 494 kts | 79° |
| 2026-05-07 13:46 | 44.39168 | -98.73369 | 34964 ft | 495 kts | 79° |
| 2026-05-07 13:47 | 44.39654 | -98.63766 | 34987 ft | 495 kts | 79° |
| 2026-05-07 13:47 | 44.40137 | -98.54160 | 34979 ft | 495 kts | 79° |
| 2026-05-07 13:48 | 44.40611 | -98.44550 | 34973 ft | 495 kts | 79° |
| 2026-05-07 13:48 | 44.41082 | -98.34929 | 34965 ft | 496 kts | 80° |
| 2026-05-07 13:49 | 44.41531 | -98.25324 | 34947 ft | 493 kts | 79° |
| 2026-05-07 13:49 | 44.41949 | -98.15804 | 34945 ft | 494 kts | 79° |
| 2026-05-07 13:50 | 44.42373 | -98.06211 | 34950 ft | 494 kts | 79° |
| 2026-05-07 13:50 | 44.42803 | -97.96601 | 34990 ft | 495 kts | 79° |
| 2026-05-07 13:51 | 44.43235 | -97.86984 | 34980 ft | 495 kts | 79° |
| 2026-05-07 13:51 | 44.43676 | -97.77376 | 34975 ft | 495 kts | 79° |
| 2026-05-07 13:52 | 44.44089 | -97.67750 | 34970 ft | 496 kts | 80° |
| 2026-05-07 13:52 | 44.44485 | -97.58120 | 35023 ft | 496 kts | 80° |
| 2026-05-07 13:53 | 44.44882 | -97.48488 | 34981 ft | 495 kts | 80° |
| 2026-05-07 13:53 | 44.45264 | -97.38869 | 34980 ft | 495 kts | 80° |
| 2026-05-07 13:54 | 44.45570 | -97.30864 | 34976 ft | 495 kts | 80° |
| 2026-05-07 13:54 | 44.45990 | -97.19677 | 34986 ft | 495 kts | 81° |
| 2026-05-07 13:55 | 44.46334 | -97.10042 | 34976 ft | 495 kts | 81° |
| 2026-05-07 13:55 | 44.46682 | -97.00415 | 34979 ft | 495 kts | 81° |
| 2026-05-07 13:56 | 44.46980 | -96.92350 | 34967 ft | 495 kts | 80° |
| 2026-05-07 13:56 | 44.47342 | -96.82731 | 35010 ft | 495 kts | 81° |
| 2026-05-07 13:57 | 44.47674 | -96.73173 | 34986 ft | 495 kts | 81° |
| 2026-05-07 13:57 | 44.47982 | -96.63535 | 34982 ft | 495 kts | 81° |
| 2026-05-07 13:58 | 44.48285 | -96.53892 | 34989 ft | 495 kts | 81° |
| 2026-05-07 13:58 | 44.48584 | -96.44251 | 35018 ft | 496 kts | 82° |
| 2026-05-07 13:59 | 44.48877 | -96.34594 | 35008 ft | 496 kts | 82° |
| 2026-05-07 13:59 | 44.49169 | -96.24936 | 35003 ft | 497 kts | 82° |
| 2026-05-07 14:00 | 44.49448 | -96.15270 | 35006 ft | 497 kts | 82° |
| 2026-05-07 14:00 | 44.49500 | -96.05566 | 35050 ft | 501 kts | 88° |
| 2026-05-07 14:01 | 44.49117 | -95.95819 | 35036 ft | 501 kts | 88° |
| 2026-05-07 14:01 | 44.48731 | -95.86139 | 35023 ft | 501 kts | 88° |
| 2026-05-07 14:02 | 44.48332 | -95.76401 | 35017 ft | 501 kts | 88° |
| 2026-05-07 14:02 | 44.47921 | -95.66654 | 35038 ft | 501 kts | 89° |
| 2026-05-07 14:03 | 44.47501 | -95.56908 | 34992 ft | 502 kts | 89° |
| 2026-05-07 14:03 | 44.47080 | -95.47143 | 34991 ft | 503 kts | 89° |
| 2026-05-07 14:04 | 44.46646 | -95.37356 | 34982 ft | 504 kts | 89° |
| 2026-05-07 14:04 | 44.46194 | -95.27566 | 35009 ft | 504 kts | 90° |
| 2026-05-07 14:05 | 44.46283 | -95.17839 | 34997 ft | 495 kts | 76° |
| 2026-05-07 14:05 | 44.48048 | -95.08656 | 34978 ft | 487 kts | 65° |
| 2026-05-07 14:05 | 44.49109 | -95.04147 | 34797 ft | 487 kts | 65° |
| 2026-05-07 14:06 | 44.50159 | -94.99640 | 34567 ft | 487 kts | 66° |
| 2026-05-07 14:06 | 44.51206 | -94.95134 | 34396 ft | 486 kts | 66° |
| 2026-05-07 14:06 | 44.52250 | -94.90640 | 34161 ft | 485 kts | 66° |
| 2026-05-07 14:06 | 44.53294 | -94.86130 | 33184 ft | 492 kts | 66° |
| 2026-05-07 14:07 | 44.54348 | -94.81563 | 32525 ft | 490 kts | 66° |
| 2026-05-07 14:07 | 44.55383 | -94.77044 | 32001 ft | 485 kts | 66° |
| 2026-05-07 14:07 | 44.56405 | -94.72563 | 31520 ft | 479 kts | 66° |
| 2026-05-07 14:07 | 44.57414 | -94.68136 | 31068 ft | 474 kts | 65° |
| 2026-05-07 14:08 | 44.58411 | -94.63758 | 30599 ft | 469 kts | 65° |
| 2026-05-07 14:08 | 44.59399 | -94.59423 | 30135 ft | 464 kts | 65° |
| 2026-05-07 14:08 | 44.60378 | -94.55141 | 29630 ft | 459 kts | 66° |
| 2026-05-07 14:08 | 44.61345 | -94.50916 | 28898 ft | 449 kts | 66° |
| 2026-05-07 14:09 | 44.62285 | -94.46778 | 27731 ft | 440 kts | 66° |
| 2026-05-07 14:09 | 44.63202 | -94.42723 | 26642 ft | 431 kts | 67° |
| 2026-05-07 14:09 | 44.64097 | -94.38751 | 25617 ft | 422 kts | 68° |
| 2026-05-07 14:09 | 44.64972 | -94.34864 | 24612 ft | 413 kts | 68° |
| 2026-05-07 14:10 | 44.65830 | -94.31054 | 23634 ft | 404 kts | 68° |
| 2026-05-07 14:10 | 44.66660 | -94.27374 | 22500 ft | 397 kts | 68° |
| 2026-05-07 14:10 | 44.67479 | -94.23736 | 21813 ft | 383 kts | 68° |
| 2026-05-07 14:10 | 44.68273 | -94.20200 | 21394 ft | 377 kts | 68° |
| 2026-05-07 14:11 | 44.69064 | -94.16699 | 20921 ft | 375 kts | 68° |
| 2026-05-07 14:11 | 44.69846 | -94.13224 | 20460 ft | 372 kts | 68° |
| 2026-05-07 14:11 | 44.70622 | -94.09775 | 20010 ft | 369 kts | 68° |
| 2026-05-07 14:11 | 44.71390 | -94.06352 | 19578 ft | 366 kts | 68° |
| 2026-05-07 14:12 | 44.72148 | -94.02957 | 19151 ft | 362 kts | 68° |
| 2026-05-07 14:12 | 44.72901 | -93.99591 | 18738 ft | 360 kts | 68° |
| 2026-05-07 14:12 | 44.73651 | -93.96253 | 18344 ft | 356 kts | 68° |
| 2026-05-07 14:12 | 44.74390 | -93.92943 | 17888 ft | 354 kts | 68° |
| 2026-05-07 14:13 | 44.75119 | -93.89669 | 17526 ft | 348 kts | 68° |
| 2026-05-07 14:13 | 44.75837 | -93.86439 | 17145 ft | 344 kts | 68° |
| 2026-05-07 14:13 | 44.76549 | -93.83245 | 16772 ft | 340 kts | 68° |
| 2026-05-07 14:13 | 44.77245 | -93.80114 | 16562 ft | 332 kts | 68° |
| 2026-05-07 14:14 | 44.77926 | -93.77040 | 16315 ft | 327 kts | 68° |
| 2026-05-07 14:14 | 44.78607 | -93.73993 | 16048 ft | 325 kts | 68° |
| 2026-05-07 14:14 | 44.79285 | -93.70963 | 15785 ft | 324 kts | 68° |
| 2026-05-07 14:14 | 44.79959 | -93.67941 | 15510 ft | 323 kts | 68° |
| 2026-05-07 14:15 | 44.80628 | -93.64925 | 15122 ft | 323 kts | 68° |
| 2026-05-07 14:15 | 44.81296 | -93.61903 | 14669 ft | 324 kts | 68° |
| 2026-05-07 14:15 | 44.81963 | -93.58877 | 14273 ft | 323 kts | 68° |
| 2026-05-07 14:15 | 44.82628 | -93.55854 | 13847 ft | 323 kts | 68° |
| 2026-05-07 14:16 | 44.83287 | -93.52856 | 13525 ft | 319 kts | 68° |
| 2026-05-07 14:16 | 44.83932 | -93.49922 | 13000 ft | 317 kts | 68° |
| 2026-05-07 14:16 | 44.84585 | -93.46950 | 12418 ft | 318 kts | 69° |
| 2026-05-07 14:16 | 44.85246 | -93.44002 | 11991 ft | 315 kts | 65° |
| 2026-05-07 14:17 | 44.86217 | -93.41273 | 11643 ft | 307 kts | 53° |
| 2026-05-07 14:17 | 44.87338 | -93.38687 | 11170 ft | 309 kts | 54° |
| 2026-05-07 14:17 | 44.88444 | -93.36115 | 10849 ft | 305 kts | 54° |
| 2026-05-07 14:17 | 44.89542 | -93.33553 | 10454 ft | 305 kts | 54° |
| 2026-05-07 14:18 | 44.90637 | -93.31000 | 10067 ft | 304 kts | 54° |
| 2026-05-07 14:18 | 44.91728 | -93.28451 | 9655 ft | 303 kts | 54° |
| 2026-05-07 14:18 | 44.92810 | -93.25911 | 9233 ft | 301 kts | 54° |
| 2026-05-07 14:18 | 44.93887 | -93.23385 | 8846 ft | 299 kts | 54° |
| 2026-05-07 14:19 | 44.94967 | -93.20856 | 8386 ft | 300 kts | 55° |
| 2026-05-07 14:19 | 44.95998 | -93.18349 | 8146 ft | 294 kts | 62° |
| 2026-05-07 14:19 | 44.96581 | -93.15619 | 8000 ft | 287 kts | 81° |
| 2026-05-07 14:19 | 44.96579 | -93.12921 | 8010 ft | 272 kts | 98° |
| 2026-05-07 14:20 | 44.96075 | -93.10395 | 8015 ft | 265 kts | 115° |
| 2026-05-07 14:20 | 44.95148 | -93.08157 | 8008 ft | 265 kts | 123° |
| 2026-05-07 14:20 | 44.94173 | -93.05945 | 8017 ft | 266 kts | 123° |
| 2026-05-07 14:20 | 44.93201 | -93.03724 | 8021 ft | 266 kts | 123° |
| 2026-05-07 14:21 | 44.92231 | -93.01503 | 8020 ft | 266 kts | 123° |
| 2026-05-07 14:21 | 44.91257 | -92.99271 | 7822 ft | 268 kts | 123° |
| 2026-05-07 14:21 | 44.90282 | -92.97041 | 7457 ft | 267 kts | 123° |
| 2026-05-07 14:21 | 44.89299 | -92.94805 | 7056 ft | 269 kts | 123° |
| 2026-05-07 14:22 | 44.88289 | -92.92576 | 6650 ft | 270 kts | 129° |
| 2026-05-07 14:22 | 44.86861 | -92.90936 | 6228 ft | 264 kts | 160° |
| 2026-05-07 14:22 | 44.85097 | -92.90480 | 5808 ft | 257 kts | 189° |
| 2026-05-07 14:22 | 44.83436 | -92.91166 | 5394 ft | 252 kts | 207° |
| 2026-05-07 14:23 | 44.81851 | -92.92230 | 4978 ft | 252 kts | 211° |
| 2026-05-07 14:23 | 44.80558 | -92.93828 | 4540 ft | 247 kts | 240° |
| 2026-05-07 14:23 | 44.80018 | -92.96084 | 4123 ft | 244 kts | 265° |
| 2026-05-07 14:23 | 44.79917 | -92.98424 | 4000 ft | 232 kts | 269° |
| 2026-05-07 14:24 | 44.80082 | -93.00610 | 3937 ft | 222 kts | 289° |
| 2026-05-07 14:24 | 44.80779 | -93.02528 | 3701 ft | 220 kts | 301° |
| 2026-05-07 14:24 | 44.81585 | -93.04357 | 3414 ft | 219 kts | 301° |
| 2026-05-07 14:24 | 44.82382 | -93.06178 | 3151 ft | 215 kts | 301° |
| 2026-05-07 14:25 | 44.83160 | -93.07964 | 2832 ft | 212 kts | 301° |
| 2026-05-07 14:25 | 44.83923 | -93.09717 | 2536 ft | 205 kts | 301° |
| 2026-05-07 14:25 | 44.84635 | -93.11353 | 2256 ft | 187 kts | 301° |
| 2026-05-07 14:25 | 44.85274 | -93.12825 | 2016 ft | 167 kts | 301° |
| 2026-05-07 14:26 | 44.85847 | -93.14144 | 1770 ft | 151 kts | 301° |
| 2026-05-07 14:26 | 44.86382 | -93.15376 | 1539 ft | 145 kts | 301° |
| 2026-05-07 14:26 | 44.86898 | -93.16567 | 1347 ft | 144 kts | 301° |
| 2026-05-07 14:26 | 44.87416 | -93.17766 | 1135 ft | 143 kts | 302° |
| 2026-05-07 14:27 | 44.87936 | -93.18961 | 952 ft | 143 kts | 301° |
| 2026-05-07 14:27 | 44.88448 | -93.20149 | 840 ft | 135 kts | 302° |
| 2026-05-07 14:27 | 44.88884 | -93.21150 | 831 ft | 95 kts | 302° |
| 2026-05-07 14:27 | 44.89128 | -93.21710 | 830 ft | 50 kts | 301° |
| 2026-05-07 14:28 | 44.89192 | -93.21950 | 834 ft | 12 kts | 214° |
| 2026-05-07 14:28 | 44.89117 | -93.21957 | 835 ft | 11 kts | 168° |
| 2026-05-07 14:28 | 44.89075 | -93.21883 | 841 ft | 10 kts | 123° |
| 2026-05-07 14:28 | 44.89040 | -93.21808 | 841 ft | 9 kts | 123° |
| 2026-05-07 14:29 | 44.89006 | -93.21727 | 834 ft | 14 kts | 120° |
| 2026-05-07 14:29 | 44.88938 | -93.21569 | 830 ft | 20 kts | 121° |
| 2026-05-07 14:29 | 44.88870 | -93.21412 | 835 ft | 18 kts | 121° |
| 2026-05-07 14:29 | 44.88802 | -93.21278 | 832 ft | 8 kts | 160° |
| 2026-05-07 14:30 | 44.88764 | -93.21305 | 830 ft | 5 kts | 225° |
| 2026-05-07 14:30 | 44.88748 | -93.21329 | 834 ft | 4 kts | 226° |
| 2026-05-07 14:30 | 44.88697 | -93.21401 | 840 ft | 17 kts | 224° |
| 2026-05-07 14:30 | 44.88600 | -93.21517 | 839 ft | 6 kts | 185° |
| 2026-05-07 14:31 | 44.88586 | -93.21475 | 836 ft | 7 kts | 101° |
| 2026-05-07 14:31 | 44.88576 | -93.21422 | 835 ft | 0 kts | 105° |